createdAt,value
2018-04-09T00:00:01.488Z,801.19
2018-04-09T00:00:05.491Z,801.21
2018-04-09T00:00:09.703Z,801.25
2018-04-09T00:00:13.702Z,801.29
2018-04-09T00:00:17.905Z,801.29
2018-04-09T00:00:21.784Z,801.3
2018-04-09T00:00:25.988Z,801.29
2018-04-09T00:00:29.978Z,801.28
2018-04-09T00:00:33.967Z,801.3
2018-04-09T00:00:37.961Z,801.34
2018-04-09T00:00:41.960Z,801.26
2018-04-09T00:00:45.968Z,801.31
2018-04-09T00:00:50.182Z,801.28
2018-04-09T00:00:54.294Z,801.29
2018-04-09T00:00:58.285Z,801.32
2018-04-09T00:01:02.526Z,801.29
2018-04-09T00:01:06.261Z,801.32
2018-04-09T00:01:10.253Z,801.3
2018-04-09T00:01:14.138Z,801.3
2018-04-09T00:01:18.129Z,801.34
2018-04-09T00:01:22.343Z,801.35
2018-04-09T00:01:26.557Z,801.35
2018-04-09T00:01:30.867Z,801.3
2018-04-09T00:01:35.079Z,801.32
2018-04-09T00:01:39.072Z,801.32
2018-04-09T00:01:43.278Z,801.35
2018-04-09T00:01:47.541Z,801.37
2018-04-09T00:01:51.633Z,801.35
2018-04-09T00:01:55.520Z,801.35
2018-04-09T00:01:59.405Z,801.32
2018-04-09T00:02:03.703Z,801.28
2018-04-09T00:02:07.479Z,801.32
2018-04-09T00:02:11.580Z,801.36
2018-04-09T00:02:15.681Z,801.34
2018-04-09T00:02:19.681Z,801.33
2018-04-09T00:02:23.671Z,801.37
2018-04-09T00:02:27.767Z,801.34
2018-04-09T00:02:31.866Z,801.33
2018-04-09T00:02:35.968Z,801.34
2018-04-09T00:02:39.852Z,801.33
2018-04-09T00:02:44.115Z,801.32
2018-04-09T00:02:48.439Z,801.32
2018-04-09T00:02:52.432Z,801.31
2018-04-09T00:02:56.422Z,801.3
2018-04-09T00:03:00.303Z,801.29
2018-04-09T00:03:04.605Z,801.31
2018-04-09T00:03:08.811Z,801.29
2018-04-09T00:03:12.914Z,801.27
2018-04-09T00:03:17.232Z,801.25
2018-04-09T00:03:21.341Z,801.28
2018-04-09T00:03:25.224Z,801.25
2018-04-09T00:03:29.318Z,801.26
2018-04-09T00:03:33.308Z,801.23
2018-04-09T00:03:37.299Z,801.22
2018-04-09T00:03:41.395Z,801.25
2018-04-09T00:03:45.602Z,801.21
2018-04-09T00:03:49.702Z,801.17
2018-04-09T00:03:53.708Z,801.17
2018-04-09T00:03:57.806Z,801.21
2018-04-09T00:04:02.155Z,801.15
2018-04-09T00:04:06.386Z,801.14
2018-04-09T00:04:10.382Z,801.18
2018-04-09T00:04:14.484Z,801.16
2018-04-09T00:04:18.583Z,801.09
2018-04-09T00:04:22.800Z,801.14
2018-04-09T00:04:26.935Z,801.12
2018-04-09T00:04:30.922Z,801.09
2018-04-09T00:04:34.913Z,801.07
2018-04-09T00:04:39.012Z,801.11
2018-04-09T00:04:42.895Z,801.07
2018-04-09T00:04:47.009Z,801.04
2018-04-09T00:04:51.106Z,801.05
2018-04-09T00:04:54.880Z,801.03
2018-04-09T00:04:58.869Z,801.01
2018-04-09T00:05:02.756Z,801.02
2018-04-09T00:05:06.871Z,801.03
2018-04-09T00:05:10.863Z,800.96
2018-04-09T00:05:14.864Z,800.98
2018-04-09T00:05:18.859Z,800.93
2018-04-09T00:05:22.740Z,800.93
2018-04-09T00:05:26.856Z,800.89
2018-04-09T00:05:30.954Z,800.91
2018-04-09T00:05:34.947Z,800.87
2018-04-09T00:05:38.935Z,800.87
2018-04-09T00:05:43.141Z,800.84
2018-04-09T00:05:47.354Z,800.84
2018-04-09T00:05:51.128Z,800.85
2018-04-09T00:05:54.903Z,800.84
2018-04-09T00:05:59.006Z,800.8
2018-04-09T00:06:02.995Z,800.8
2018-04-09T00:06:07.100Z,800.76
2018-04-09T00:06:11.303Z,800.79
2018-04-09T00:06:15.296Z,800.72
2018-04-09T00:06:19.287Z,800.71
2018-04-09T00:06:23.170Z,800.71
2018-04-09T00:06:27.272Z,800.72
2018-04-09T00:06:31.368Z,800.7
2018-04-09T00:06:35.479Z,800.72
2018-04-09T00:06:39.578Z,800.67
2018-04-09T00:06:43.787Z,800.67
2018-04-09T00:06:47.898Z,800.67
2018-04-09T00:06:51.889Z,800.66
2018-04-09T00:06:55.886Z,800.61
2018-04-09T00:06:59.987Z,800.57
2018-04-09T00:07:04.094Z,800.56
2018-04-09T00:07:08.191Z,800.6
2018-04-09T00:07:12.404Z,800.55
2018-04-09T00:07:16.609Z,800.56
2018-04-09T00:07:20.818Z,800.53
2018-04-09T00:07:24.921Z,800.56
2018-04-09T00:07:29.128Z,800.53
2018-04-09T00:07:33.337Z,800.53
2018-04-09T00:07:37.328Z,800.49
2018-04-09T00:07:41.533Z,800.46
2018-04-09T00:07:45.525Z,800.44
2018-04-09T00:07:49.626Z,800.45
2018-04-09T00:07:53.964Z,800.45
2018-04-09T00:07:58.109Z,800.42
2018-04-09T00:08:02.323Z,800.4
2018-04-09T00:08:06.421Z,800.4
2018-04-09T00:08:10.515Z,800.41
2018-04-09T00:08:14.873Z,800.38
2018-04-09T00:08:18.984Z,800.35
2018-04-09T00:08:23.087Z,800.38
2018-04-09T00:08:27.199Z,800.33
2018-04-09T00:08:31.300Z,800.33
2018-04-09T00:08:35.291Z,800.3
2018-04-09T00:08:39.283Z,800.31
2018-04-09T00:08:43.622Z,800.32
2018-04-09T00:08:47.721Z,800.25
2018-04-09T00:08:51.820Z,800.29
2018-04-09T00:08:55.819Z,800.27
2018-04-09T00:08:59.810Z,800.24
2018-04-09T00:09:03.741Z,800.27
2018-04-09T00:09:07.735Z,800.22
2018-04-09T00:09:11.834Z,800.23
2018-04-09T00:09:16.155Z,800.2
2018-04-09T00:09:20.033Z,800.22
2018-04-09T00:09:24.237Z,800.19
2018-04-09T00:09:28.130Z,800.2
2018-04-09T00:09:32.013Z,800.18
2018-04-09T00:09:36.116Z,800.17
2018-04-09T00:09:40.105Z,800.16
2018-04-09T00:09:44.218Z,800.12
2018-04-09T00:09:48.323Z,800.15
2018-04-09T00:09:52.537Z,800.15
2018-04-09T00:09:56.419Z,800.12
2018-04-09T00:10:00.630Z,800.1
2018-04-09T00:10:04.740Z,800.1
2018-04-09T00:10:08.519Z,800.14
2018-04-09T00:10:12.835Z,800.05
2018-04-09T00:10:17.035Z,800.08
2018-04-09T00:10:21.028Z,800.09
2018-04-09T00:10:25.124Z,800.07
2018-04-09T00:10:29.111Z,800.12
2018-04-09T00:10:33.208Z,800.06
2018-04-09T00:10:37.090Z,800.03
2018-04-09T00:10:40.973Z,800.04
2018-04-09T00:10:45.173Z,800.03
2018-04-09T00:10:49.057Z,800
2018-04-09T00:10:52.949Z,800
2018-04-09T00:10:57.050Z,800
2018-04-09T00:11:01.038Z,800.01
2018-04-09T00:11:05.137Z,799.99
2018-04-09T00:11:09.235Z,799.96
2018-04-09T00:11:13.333Z,799.95
2018-04-09T00:11:17.540Z,799.99
2018-04-09T00:11:21.428Z,799.99
2018-04-09T00:11:25.737Z,799.97
2018-04-09T00:11:29.833Z,799.91
2018-04-09T00:11:34.036Z,799.93
2018-04-09T00:11:38.156Z,799.91
2018-04-09T00:11:42.264Z,799.91
2018-04-09T00:11:46.366Z,799.93
2018-04-09T00:11:50.578Z,799.89
2018-04-09T00:11:54.672Z,799.89
2018-04-09T00:11:58.873Z,799.9
2018-04-09T00:12:02.980Z,799.86
2018-04-09T00:12:06.969Z,799.89
2018-04-09T00:12:11.177Z,799.84
2018-04-09T00:12:15.120Z,799.85
2018-04-09T00:12:19.218Z,799.86
2018-04-09T00:12:23.098Z,799.85
2018-04-09T00:12:27.085Z,799.82
2018-04-09T00:12:31.083Z,799.81
2018-04-09T00:12:35.290Z,799.8
2018-04-09T00:12:39.392Z,799.76
2018-04-09T00:12:43.497Z,799.77
2018-04-09T00:12:47.491Z,799.81
2018-04-09T00:12:51.591Z,799.78
2018-04-09T00:12:55.686Z,799.76
2018-04-09T00:12:59.786Z,799.72
2018-04-09T00:13:03.882Z,799.7
2018-04-09T00:13:08.085Z,799.66
2018-04-09T00:13:11.968Z,799.69
2018-04-09T00:13:15.847Z,799.71
2018-04-09T00:13:19.942Z,799.71
2018-04-09T00:13:23.936Z,799.69
2018-04-09T00:13:28.190Z,799.7
2018-04-09T00:13:32.180Z,799.69
2018-04-09T00:13:36.281Z,799.64
2018-04-09T00:13:40.165Z,799.62
2018-04-09T00:13:44.372Z,799.62
2018-04-09T00:13:48.581Z,799.64
2018-04-09T00:13:52.572Z,799.64
2018-04-09T00:13:56.562Z,799.6
2018-04-09T00:14:00.554Z,799.6
2018-04-09T00:14:04.492Z,799.56
2018-04-09T00:14:08.376Z,799.59
2018-04-09T00:14:12.472Z,799.57
2018-04-09T00:14:16.565Z,799.56
2018-04-09T00:14:20.666Z,799.52
2018-04-09T00:14:24.761Z,799.54
2018-04-09T00:14:28.748Z,799.54
2018-04-09T00:14:32.627Z,799.47
2018-04-09T00:14:36.835Z,799.48
2018-04-09T00:14:40.714Z,799.43
2018-04-09T00:14:44.704Z,799.45
2018-04-09T00:14:48.807Z,799.44
2018-04-09T00:14:52.939Z,799.44
2018-04-09T00:14:56.930Z,799.47
2018-04-09T00:15:00.811Z,799.43
2018-04-09T00:15:04.699Z,799.46
2018-04-09T00:15:08.802Z,799.43
2018-04-09T00:15:12.899Z,799.43
2018-04-09T00:15:16.895Z,799.39
2018-04-09T00:15:21.010Z,799.4
2018-04-09T00:15:25.002Z,799.4
2018-04-09T00:15:29.101Z,799.36
2018-04-09T00:15:33.098Z,799.33
2018-04-09T00:15:37.189Z,799.33
2018-04-09T00:15:41.392Z,799.33
2018-04-09T00:15:45.488Z,799.31
2018-04-09T00:15:49.477Z,799.33
2018-04-09T00:15:53.578Z,799.29
2018-04-09T00:15:57.665Z,799.28
2018-04-09T00:16:01.662Z,799.27
2018-04-09T00:16:05.786Z,799.28
2018-04-09T00:16:09.926Z,799.24
2018-04-09T00:16:14.042Z,799.24
2018-04-09T00:16:18.034Z,799.23
2018-04-09T00:16:22.130Z,799.22
2018-04-09T00:16:26.347Z,799.19
2018-04-09T00:16:30.559Z,799.2
2018-04-09T00:16:34.883Z,799.18
2018-04-09T00:16:39.203Z,799.16
2018-04-09T00:16:43.300Z,799.16
2018-04-09T00:16:47.507Z,799.14
2018-04-09T00:16:51.612Z,799.13
2018-04-09T00:16:55.396Z,799.12
2018-04-09T00:16:59.601Z,799.1
2018-04-09T00:17:03.486Z,799.11
2018-04-09T00:17:07.481Z,799.08
2018-04-09T00:17:11.580Z,799.1
2018-04-09T00:17:15.569Z,799.11
2018-04-09T00:17:19.455Z,799
2018-04-09T00:17:23.455Z,799.06
2018-04-09T00:17:27.449Z,799.03
2018-04-09T00:17:31.652Z,799.03
2018-04-09T00:17:35.754Z,799.04
2018-04-09T00:17:39.855Z,799.03
2018-04-09T00:17:43.951Z,798.96
2018-04-09T00:17:47.943Z,798.97
2018-04-09T00:17:52.261Z,798.98
2018-04-09T00:17:56.503Z,798.92
2018-04-09T00:18:00.607Z,798.95
2018-04-09T00:18:04.595Z,798.94
2018-04-09T00:18:08.797Z,798.9
2018-04-09T00:18:12.898Z,798.91
2018-04-09T00:18:16.783Z,798.89
2018-04-09T00:18:20.876Z,798.91
2018-04-09T00:18:25.191Z,798.9
2018-04-09T00:18:28.974Z,798.9
2018-04-09T00:18:33.070Z,798.85
2018-04-09T00:18:37.391Z,798.86
2018-04-09T00:18:41.491Z,798.82
2018-04-09T00:18:45.589Z,798.87
2018-04-09T00:18:49.480Z,798.82
2018-04-09T00:18:53.477Z,798.82
2018-04-09T00:18:57.465Z,798.84
2018-04-09T00:19:01.458Z,798.82
2018-04-09T00:19:05.449Z,798.81
2018-04-09T00:19:09.331Z,798.77
2018-04-09T00:19:13.539Z,798.78
2018-04-09T00:19:17.532Z,798.76
2018-04-09T00:19:21.638Z,798.75
2018-04-09T00:19:25.633Z,798.75
2018-04-09T00:19:29.414Z,798.76
2018-04-09T00:19:33.510Z,798.77
2018-04-09T00:19:37.286Z,798.72
2018-04-09T00:19:41.492Z,798.68
2018-04-09T00:19:45.589Z,798.7
2018-04-09T00:19:49.579Z,798.7
2018-04-09T00:19:53.677Z,798.72
2018-04-09T00:19:57.666Z,798.68
2018-04-09T00:20:01.760Z,798.69
2018-04-09T00:20:06.061Z,798.68
2018-04-09T00:20:10.156Z,798.66
2018-04-09T00:20:14.263Z,798.68
2018-04-09T00:20:18.151Z,798.64
2018-04-09T00:20:22.243Z,798.66
2018-04-09T00:20:26.124Z,798.64
2018-04-09T00:20:30.433Z,798.61
2018-04-09T00:20:34.535Z,798.64
2018-04-09T00:20:38.635Z,798.61
2018-04-09T00:20:42.517Z,798.61
2018-04-09T00:20:46.505Z,798.6
2018-04-09T00:20:50.502Z,798.59
2018-04-09T00:20:54.711Z,798.6
2018-04-09T00:20:58.702Z,798.61
2018-04-09T00:21:02.685Z,798.58
2018-04-09T00:21:06.683Z,798.56
2018-04-09T00:21:10.780Z,798.52
2018-04-09T00:21:14.767Z,798.49
2018-04-09T00:21:18.876Z,798.51
2018-04-09T00:21:22.972Z,798.53
2018-04-09T00:21:26.868Z,798.53
2018-04-09T00:21:30.861Z,798.51
2018-04-09T00:21:34.961Z,798.47
2018-04-09T00:21:38.951Z,798.48
2018-04-09T00:21:42.945Z,798.51
2018-04-09T00:21:46.824Z,798.47
2018-04-09T00:21:50.709Z,798.47
2018-04-09T00:21:54.592Z,798.47
2018-04-09T00:21:58.694Z,798.4
2018-04-09T00:22:02.907Z,798.4
2018-04-09T00:22:07.151Z,798.39
2018-04-09T00:22:10.996Z,798.38
2018-04-09T00:22:15.102Z,798.37
2018-04-09T00:22:19.351Z,798.44
2018-04-09T00:22:23.446Z,798.4
2018-04-09T00:22:27.654Z,798.4
2018-04-09T00:22:31.757Z,798.34
2018-04-09T00:22:35.750Z,798.34
2018-04-09T00:22:39.961Z,798.36
2018-04-09T00:22:43.950Z,798.35
2018-04-09T00:22:48.155Z,798.34
2018-04-09T00:22:52.254Z,798.36
2018-04-09T00:22:56.249Z,798.31
2018-04-09T00:23:00.452Z,798.33
2018-04-09T00:23:04.668Z,798.36
2018-04-09T00:23:08.775Z,798.35
2018-04-09T00:23:12.987Z,798.33
2018-04-09T00:23:17.086Z,798.3
2018-04-09T00:23:21.500Z,798.28
2018-04-09T00:23:25.387Z,798.27
2018-04-09T00:23:29.592Z,798.28
2018-04-09T00:23:33.482Z,798.29
2018-04-09T00:23:37.690Z,798.31
2018-04-09T00:23:41.786Z,798.24
2018-04-09T00:23:45.780Z,798.23
2018-04-09T00:23:49.981Z,798.23
2018-04-09T00:23:53.974Z,798.24
2018-04-09T00:23:58.283Z,798.24
2018-04-09T00:24:02.277Z,798.22
2018-04-09T00:24:06.269Z,798.19
2018-04-09T00:24:10.371Z,798.21
2018-04-09T00:24:14.147Z,798.19
2018-04-09T00:24:18.246Z,798.22
2018-04-09T00:24:22.246Z,798.22
2018-04-09T00:24:26.233Z,798.22
2018-04-09T00:24:30.127Z,798.19
2018-04-09T00:24:34.222Z,798.2
2018-04-09T00:24:38.217Z,798.11
2018-04-09T00:24:42.536Z,798.11
2018-04-09T00:24:46.853Z,798.13
2018-04-09T00:24:51.057Z,798.1
2018-04-09T00:24:55.271Z,798.13
2018-04-09T00:24:59.258Z,798.09
2018-04-09T00:25:03.344Z,798.13
2018-04-09T00:25:07.448Z,798.11
2018-04-09T00:25:11.660Z,798.11
2018-04-09T00:25:15.706Z,798.11
2018-04-09T00:25:19.913Z,798.12
2018-04-09T00:25:23.911Z,798.1
2018-04-09T00:25:28.118Z,798.12
2018-04-09T00:25:32.340Z,798.09
2018-04-09T00:25:36.227Z,798.08
2018-04-09T00:25:40.326Z,798.08
2018-04-09T00:25:44.361Z,798.07
2018-04-09T00:25:48.350Z,798.06
2018-04-09T00:25:52.560Z,798.05
2018-04-09T00:25:56.550Z,798.04
2018-04-09T00:26:00.659Z,798.04
2018-04-09T00:26:04.777Z,797.98
2018-04-09T00:26:08.661Z,798.03
2018-04-09T00:26:12.655Z,798.03
2018-04-09T00:26:16.648Z,797.99
2018-04-09T00:26:20.859Z,797.98
2018-04-09T00:26:24.848Z,797.99
2018-04-09T00:26:28.950Z,798.01
2018-04-09T00:26:33.266Z,798.01
2018-04-09T00:26:37.478Z,798.01
2018-04-09T00:26:41.684Z,797.98
2018-04-09T00:26:45.897Z,797.97
2018-04-09T00:26:50.240Z,797.95
2018-04-09T00:26:54.228Z,797.97
2018-04-09T00:26:58.215Z,797.94
2018-04-09T00:27:02.573Z,797.96
2018-04-09T00:27:06.573Z,797.95
2018-04-09T00:27:10.886Z,797.92
2018-04-09T00:27:14.774Z,797.93
2018-04-09T00:27:18.868Z,797.91
2018-04-09T00:27:22.964Z,797.91
2018-04-09T00:27:27.171Z,797.93
2018-04-09T00:27:31.162Z,797.9
2018-04-09T00:27:35.367Z,797.88
2018-04-09T00:27:39.352Z,797.84
2018-04-09T00:27:43.233Z,797.89
2018-04-09T00:27:47.442Z,797.88
2018-04-09T00:27:51.435Z,797.87
2018-04-09T00:27:55.428Z,797.88
2018-04-09T00:27:59.527Z,797.87
2018-04-09T00:28:03.520Z,797.87
2018-04-09T00:28:07.727Z,797.83
2018-04-09T00:28:11.835Z,797.85
2018-04-09T00:28:15.833Z,797.78
2018-04-09T00:28:19.964Z,797.82
2018-04-09T00:28:23.846Z,797.85
2018-04-09T00:28:27.956Z,797.86
2018-04-09T00:28:32.163Z,797.83
2018-04-09T00:28:36.262Z,797.83
2018-04-09T00:28:40.367Z,797.8
2018-04-09T00:28:44.573Z,797.76
2018-04-09T00:28:48.564Z,797.77
2018-04-09T00:28:52.446Z,797.81
2018-04-09T00:28:56.759Z,797.78
2018-04-09T00:29:00.640Z,797.79
2018-04-09T00:29:04.747Z,797.77
2018-04-09T00:29:08.843Z,797.79
2018-04-09T00:29:12.942Z,797.77
2018-04-09T00:29:17.150Z,797.76
2018-04-09T00:29:21.250Z,797.76
2018-04-09T00:29:25.242Z,797.73
2018-04-09T00:29:29.444Z,797.71
2018-04-09T00:29:33.430Z,797.72
2018-04-09T00:29:37.312Z,797.72
2018-04-09T00:29:41.528Z,797.73
2018-04-09T00:29:45.627Z,797.72
2018-04-09T00:29:49.846Z,797.68
2018-04-09T00:29:53.842Z,797.64
2018-04-09T00:29:58.051Z,797.71
2018-04-09T00:30:02.087Z,797.69
2018-04-09T00:30:05.972Z,797.7
2018-04-09T00:30:09.851Z,797.66
2018-04-09T00:30:13.960Z,797.65
2018-04-09T00:30:18.163Z,797.68
2018-04-09T00:30:22.159Z,797.68
2018-04-09T00:30:26.253Z,797.62
2018-04-09T00:30:30.029Z,797.65
2018-04-09T00:30:34.133Z,797.65
2018-04-09T00:30:38.351Z,797.66
2018-04-09T00:30:42.559Z,797.66
2018-04-09T00:30:46.549Z,797.64
2018-04-09T00:30:50.542Z,797.64
2018-04-09T00:30:54.533Z,797.65
2018-04-09T00:30:58.522Z,797.63
2018-04-09T00:31:02.769Z,797.61
2018-04-09T00:31:06.870Z,797.58
2018-04-09T00:31:10.859Z,797.65
2018-04-09T00:31:14.962Z,797.65
2018-04-09T00:31:18.951Z,797.65
2018-04-09T00:31:22.940Z,797.65
2018-04-09T00:31:27.150Z,797.65
2018-04-09T00:31:31.142Z,797.62
2018-04-09T00:31:35.021Z,797.64
2018-04-09T00:31:39.063Z,797.64
2018-04-09T00:31:43.372Z,797.64
2018-04-09T00:31:47.581Z,797.65
2018-04-09T00:31:51.583Z,797.65
2018-04-09T00:31:55.572Z,797.65
2018-04-09T00:31:59.681Z,797.6
2018-04-09T00:32:04.097Z,797.65
2018-04-09T00:32:08.203Z,797.67
2018-04-09T00:32:12.409Z,797.63
2018-04-09T00:32:16.512Z,797.64
2018-04-09T00:32:20.867Z,797.67
2018-04-09T00:32:25.072Z,797.65
2018-04-09T00:32:29.171Z,797.69
2018-04-09T00:32:33.271Z,797.7
2018-04-09T00:32:37.534Z,797.68
2018-04-09T00:32:41.734Z,797.72
2018-04-09T00:32:45.725Z,797.69
2018-04-09T00:32:49.725Z,797.68
2018-04-09T00:32:53.928Z,797.73
2018-04-09T00:32:57.914Z,797.71
2018-04-09T00:33:02.123Z,797.68
2018-04-09T00:33:06.225Z,797.71
2018-04-09T00:33:10.333Z,797.7
2018-04-09T00:33:14.435Z,797.73
2018-04-09T00:33:18.325Z,797.71
2018-04-09T00:33:22.101Z,797.73
2018-04-09T00:33:26.099Z,797.73
2018-04-09T00:33:30.312Z,797.74
2018-04-09T00:33:34.520Z,797.76
2018-04-09T00:33:38.516Z,797.69
2018-04-09T00:33:42.727Z,797.74
2018-04-09T00:33:46.819Z,797.76
2018-04-09T00:33:50.808Z,797.69
2018-04-09T00:33:55.018Z,797.75
2018-04-09T00:33:59.159Z,797.74
2018-04-09T00:34:03.633Z,797.75
2018-04-09T00:34:07.631Z,797.73
2018-04-09T00:34:11.843Z,797.72
2018-04-09T00:34:15.831Z,797.74
2018-04-09T00:34:19.821Z,797.72
2018-04-09T00:34:23.488Z,797.73
2018-04-09T00:34:27.588Z,797.72
2018-04-09T00:34:31.904Z,797.73
2018-04-09T00:34:36.109Z,797.67
2018-04-09T00:34:40.219Z,797.64
2018-04-09T00:34:44.213Z,797.71
2018-04-09T00:34:48.310Z,797.7
2018-04-09T00:34:52.625Z,797.68
2018-04-09T00:34:56.829Z,797.7
2018-04-09T00:35:01.152Z,797.61
2018-04-09T00:35:05.238Z,797.64
2018-04-09T00:35:09.455Z,797.65
2018-04-09T00:35:13.551Z,797.65
2018-04-09T00:35:17.763Z,797.66
2018-04-09T00:35:21.644Z,797.61
2018-04-09T00:35:25.527Z,797.65
2018-04-09T00:35:29.409Z,797.63
2018-04-09T00:35:33.294Z,797.58
2018-04-09T00:35:37.285Z,797.62
2018-04-09T00:35:41.389Z,797.58
2018-04-09T00:35:45.596Z,797.59
2018-04-09T00:35:49.921Z,797.61
2018-04-09T00:35:53.803Z,797.58
2018-04-09T00:35:57.797Z,797.59
2018-04-09T00:36:01.794Z,797.56
2018-04-09T00:36:05.577Z,797.57
2018-04-09T00:36:09.784Z,797.55
2018-04-09T00:36:13.771Z,797.56
2018-04-09T00:36:17.868Z,797.53
2018-04-09T00:36:22.082Z,797.54
2018-04-09T00:36:26.284Z,797.54
2018-04-09T00:36:30.168Z,797.49
2018-04-09T00:36:34.377Z,797.49
2018-04-09T00:36:38.480Z,797.49
2018-04-09T00:36:42.577Z,797.48
2018-04-09T00:36:46.793Z,797.42
2018-04-09T00:36:50.891Z,797.46
2018-04-09T00:36:54.880Z,797.48
2018-04-09T00:36:58.869Z,797.47
2018-04-09T00:37:02.967Z,797.45
2018-04-09T00:37:07.179Z,797.43
2018-04-09T00:37:11.493Z,797.42
2018-04-09T00:37:15.700Z,797.41
2018-04-09T00:37:19.913Z,797.41
2018-04-09T00:37:24.314Z,797.42
2018-04-09T00:37:28.519Z,797.37
2018-04-09T00:37:32.513Z,797.38
2018-04-09T00:37:36.722Z,797.35
2018-04-09T00:37:40.830Z,797.4
2018-04-09T00:37:44.926Z,797.34
2018-04-09T00:37:49.139Z,797.35
2018-04-09T00:37:53.450Z,797.36
2018-04-09T00:37:57.545Z,797.31
2018-04-09T00:38:01.748Z,797.3
2018-04-09T00:38:05.961Z,797.33
2018-04-09T00:38:10.173Z,797.34
2018-04-09T00:38:14.271Z,797.28
2018-04-09T00:38:18.265Z,797.27
2018-04-09T00:38:22.252Z,797.26
2018-04-09T00:38:26.248Z,797.26
2018-04-09T00:38:30.461Z,797.25
2018-04-09T00:38:34.563Z,797.25
2018-04-09T00:38:38.772Z,797.22
2018-04-09T00:38:42.869Z,797.2
2018-04-09T00:38:46.644Z,797.19
2018-04-09T00:38:50.525Z,797.17
2018-04-09T00:38:54.407Z,797.17
2018-04-09T00:38:58.612Z,797.16
2018-04-09T00:39:02.597Z,797.14
2018-04-09T00:39:06.924Z,797.15
2018-04-09T00:39:10.924Z,797.15
2018-04-09T00:39:15.024Z,797.13
2018-04-09T00:39:19.127Z,797.11
2018-04-09T00:39:23.333Z,797.1
2018-04-09T00:39:27.440Z,797.1
2018-04-09T00:39:31.427Z,797.12
2018-04-09T00:39:35.523Z,797.04
2018-04-09T00:39:39.724Z,797.09
2018-04-09T00:39:43.938Z,797.06
2018-04-09T00:39:47.929Z,797.05
2018-04-09T00:39:51.917Z,797.05
2018-04-09T00:39:55.919Z,797.03
2018-04-09T00:39:59.911Z,797.02
2018-04-09T00:40:03.793Z,797
2018-04-09T00:40:07.682Z,796.99
2018-04-09T00:40:11.781Z,797.02
2018-04-09T00:40:16.003Z,796.96
2018-04-09T00:40:20.217Z,797
2018-04-09T00:40:24.527Z,796.98
2018-04-09T00:40:28.412Z,796.94
2018-04-09T00:40:32.510Z,796.95
2018-04-09T00:40:36.827Z,796.93
2018-04-09T00:40:40.824Z,796.93
2018-04-09T00:40:44.705Z,796.88
2018-04-09T00:40:48.583Z,796.92
2018-04-09T00:40:52.686Z,796.88
2018-04-09T00:40:56.677Z,796.89
2018-04-09T00:41:00.882Z,796.86
2018-04-09T00:41:04.768Z,796.88
2018-04-09T00:41:08.753Z,796.85
2018-04-09T00:41:12.956Z,796.81
2018-04-09T00:41:17.056Z,796.83
2018-04-09T00:41:21.158Z,796.8
2018-04-09T00:41:25.254Z,796.83
2018-04-09T00:41:29.349Z,796.82
2018-04-09T00:41:33.669Z,796.78
2018-04-09T00:41:37.876Z,796.76
2018-04-09T00:41:41.977Z,796.75
2018-04-09T00:41:46.077Z,796.74
2018-04-09T00:41:50.175Z,796.74
2018-04-09T00:41:54.281Z,796.72
2018-04-09T00:41:58.384Z,796.73
2018-04-09T00:42:02.266Z,796.72
2018-04-09T00:42:06.255Z,796.74
2018-04-09T00:42:10.568Z,796.68
2018-04-09T00:42:14.785Z,796.66
2018-04-09T00:42:18.676Z,796.67
2018-04-09T00:42:22.675Z,796.66
2018-04-09T00:42:26.552Z,796.63
2018-04-09T00:42:30.542Z,796.63
2018-04-09T00:42:34.860Z,796.56
2018-04-09T00:42:38.960Z,796.62
2018-04-09T00:42:43.170Z,796.59
2018-04-09T00:42:47.269Z,796.63
2018-04-09T00:42:51.369Z,796.53
2018-04-09T00:42:55.366Z,796.56
2018-04-09T00:42:59.356Z,796.6
2018-04-09T00:43:03.465Z,796.55
2018-04-09T00:43:07.783Z,796.52
2018-04-09T00:43:11.768Z,796.51
2018-04-09T00:43:15.866Z,796.52
2018-04-09T00:43:20.073Z,796.51
2018-04-09T00:43:23.955Z,796.52
2018-04-09T00:43:28.160Z,796.52
2018-04-09T00:43:32.173Z,796.54
2018-04-09T00:43:36.171Z,796.53
2018-04-09T00:43:40.476Z,796.5
2018-04-09T00:43:44.680Z,796.53
2018-04-09T00:43:48.466Z,796.44
2018-04-09T00:43:52.560Z,796.49
2018-04-09T00:43:56.550Z,796.47
2018-04-09T00:44:00.431Z,796.44
2018-04-09T00:44:04.677Z,796.46
2018-04-09T00:44:08.881Z,796.45
2018-04-09T00:44:12.986Z,796.45
2018-04-09T00:44:17.081Z,796.44
2018-04-09T00:44:21.190Z,796.44
2018-04-09T00:44:25.755Z,796.45
2018-04-09T00:44:30.430Z,796.43
2018-04-09T00:44:34.521Z,796.43
2018-04-09T00:44:38.509Z,796.42
2018-04-09T00:44:42.822Z,796.42
2018-04-09T00:44:46.812Z,796.43
2018-04-09T00:44:50.800Z,796.42
2018-04-09T00:44:55.002Z,796.42
2018-04-09T00:44:59.205Z,796.41
2018-04-09T00:45:03.212Z,796.39
2018-04-09T00:45:07.210Z,796.43
2018-04-09T00:45:11.413Z,796.39
2018-04-09T00:45:15.616Z,796.41
2018-04-09T00:45:19.604Z,796.38
2018-04-09T00:45:23.595Z,796.41
2018-04-09T00:45:27.805Z,796.38
2018-04-09T00:45:31.804Z,796.35
2018-04-09T00:45:35.794Z,796.37
2018-04-09T00:45:39.788Z,796.37
2018-04-09T00:45:43.884Z,796.37
2018-04-09T00:45:48.195Z,796.3
2018-04-09T00:45:52.406Z,796.28
2018-04-09T00:45:56.774Z,796.35
2018-04-09T00:46:00.768Z,796.33
2018-04-09T00:46:04.815Z,796.34
2018-04-09T00:46:08.811Z,796.34
2018-04-09T00:46:12.912Z,796.31
2018-04-09T00:46:16.799Z,796.32
2018-04-09T00:46:21.016Z,796.31
2018-04-09T00:46:24.790Z,796.31
2018-04-09T00:46:28.780Z,796.31
2018-04-09T00:46:32.769Z,796.26
2018-04-09T00:46:36.867Z,796.3
2018-04-09T00:46:40.902Z,796.29
2018-04-09T00:46:45.219Z,796.29
2018-04-09T00:46:49.421Z,796.27
2018-04-09T00:46:53.412Z,796.26
2018-04-09T00:46:57.299Z,796.27
2018-04-09T00:47:01.507Z,796.27
2018-04-09T00:47:05.615Z,796.28
2018-04-09T00:47:09.830Z,796.25
2018-04-09T00:47:13.822Z,796.24
2018-04-09T00:47:17.918Z,796.27
2018-04-09T00:47:22.019Z,796.24
2018-04-09T00:47:25.905Z,796.25
2018-04-09T00:47:29.897Z,796.24
2018-04-09T00:47:33.784Z,796.26
2018-04-09T00:47:37.782Z,796.22
2018-04-09T00:47:41.993Z,796.24
2018-04-09T00:47:45.879Z,796.18
2018-04-09T00:47:49.890Z,796.18
2018-04-09T00:47:53.884Z,796.21
2018-04-09T00:47:57.984Z,796.21
2018-04-09T00:48:02.086Z,796.23
2018-04-09T00:48:05.862Z,796.17
2018-04-09T00:48:09.870Z,796.17
2018-04-09T00:48:14.074Z,796.21
2018-04-09T00:48:18.390Z,796.22
2018-04-09T00:48:22.496Z,796.16
2018-04-09T00:48:26.702Z,796.17
2018-04-09T00:48:30.836Z,796.17
2018-04-09T00:48:34.835Z,796.12
2018-04-09T00:48:39.057Z,796.15
2018-04-09T00:48:43.057Z,796.16
2018-04-09T00:48:47.152Z,796.16
2018-04-09T00:48:51.144Z,796.14
2018-04-09T00:48:55.134Z,796.12
2018-04-09T00:48:59.166Z,796.1
2018-04-09T00:49:03.418Z,796.15
2018-04-09T00:49:07.404Z,796.11
2018-04-09T00:49:11.289Z,796.17
2018-04-09T00:49:15.282Z,796.12
2018-04-09T00:49:19.483Z,796.13
2018-04-09T00:49:23.580Z,796.13
2018-04-09T00:49:27.466Z,796.08
2018-04-09T00:49:31.239Z,796.1
2018-04-09T00:49:35.333Z,796.15
2018-04-09T00:49:39.534Z,796.12
2018-04-09T00:49:43.640Z,796.14
2018-04-09T00:49:47.842Z,796.13
2018-04-09T00:49:51.727Z,796.14
2018-04-09T00:49:56.046Z,796.13
2018-04-09T00:50:00.141Z,796.12
2018-04-09T00:50:04.130Z,796.1
2018-04-09T00:50:08.124Z,796.14
2018-04-09T00:50:12.433Z,796.1
2018-04-09T00:50:16.537Z,796.08
2018-04-09T00:50:20.418Z,796.09
2018-04-09T00:50:24.665Z,796.12
2018-04-09T00:50:28.765Z,796.13
2018-04-09T00:50:32.966Z,796.1
2018-04-09T00:50:37.170Z,796.09
2018-04-09T00:50:41.167Z,796.1
2018-04-09T00:50:45.054Z,796.08
2018-04-09T00:50:49.152Z,796.06
2018-04-09T00:50:53.266Z,796.04
2018-04-09T00:50:57.256Z,796.07
2018-04-09T00:51:01.245Z,796.13
2018-04-09T00:51:05.486Z,796.1